Terminal Aerodrome Forecast
Issued by NWS Sterling, VA

Current Version | Previous Version | Text Only | Print | Product List | Glossary Off
Versions: 1 2 3 4 5 6 7 8 9 10 11 12 13 14 15 16 17 18 19 20 21 22 23 24 25 26 27 28 29 30 31 32

000
FTUS41 KLWX 160523
TAFIAD
TAF
KIAD 160523Z 1606/1712 00000KT 3SM BR SCT010 SCT250
      TEMPO 1606/1609 1SM BR SCT007
     FM160900 00000KT 1SM BR BKN008
      TEMPO 1609/1612 1/2SM FG OVC001
     FM161300 34004KT P6SM SCT050 SCT250
     FM170600 00000KT P6SM SCT050
     FM170900 00000KT 6SM BR SCT080=

USA.gov is the U.S. government's official web portal to all federal, state and local government web resources and services.